GIA1113 WIMM-OEMA
Flight info
| Callsign | GIA1113 |
|---|---|
| Flight time | N/A |
| Altitude | 32000 |
| Route | MAIM1A MAIMU DCT MEMAK N563 REXOD L883 UMILA N569 TOKRA DCT ITRUX Y511 ELONU ELON1H |
| Aircraft | B77W/H-SDE1E2E3FGHIJ2J3J4J5M1RWXY/LB1D1 |
Departure
| Time | 2026-05-01 10:49 |
|---|---|
| Airport | Kualanamu International Airport (WIMM) |
Arrival
| Time | N/A |
|---|---|
| Airport | Prince Mohammad Bin Abdulaziz Airport (OEMA) |
| Time | Latitude | Longitude | Altitude | Speed | Heading |
|---|---|---|---|---|---|
| 2026-05-01 10:21 | 3.63828 | 98.87916 | 39 ft | 0 kts | 225° |
| 2026-05-01 10:35 | 3.63832 | 98.87920 | 38 ft | 2 kts | 227° |
| 2026-05-01 10:36 | 3.63852 | 98.87951 | 39 ft | 3 kts | 261° |
| 2026-05-01 10:36 | 3.63853 | 98.87970 | 39 ft | 3 kts | 282° |
| 2026-05-01 10:36 | 3.63848 | 98.87989 | 39 ft | 3 kts | 299° |
| 2026-05-01 10:37 | 3.63837 | 98.88006 | 38 ft | 3 kts | 311° |
| 2026-05-01 10:37 | 3.63830 | 98.88013 | 38 ft | 0 kts | 315° |
| 2026-05-01 10:41 | 3.63906 | 98.87961 | 38 ft | 10 kts | 8° |
| 2026-05-01 10:42 | 3.63967 | 98.87998 | 39 ft | 18 kts | 44° |
| 2026-05-01 10:42 | 3.64065 | 98.88096 | 38 ft | 22 kts | 45° |
| 2026-05-01 10:42 | 3.64136 | 98.88132 | 38 ft | 14 kts | 343° |
| 2026-05-01 10:42 | 3.64231 | 98.88050 | 38 ft | 21 kts | 315° |
| 2026-05-01 10:43 | 3.64300 | 98.87979 | 38 ft | 9 kts | 297° |
| 2026-05-01 10:43 | 3.64272 | 98.87912 | 38 ft | 12 kts | 227° |
| 2026-05-01 10:43 | 3.64202 | 98.87842 | 39 ft | 16 kts | 224° |
| 2026-05-01 10:43 | 3.64095 | 98.87734 | 38 ft | 25 kts | 225° |
| 2026-05-01 10:44 | 3.63950 | 98.87590 | 38 ft | 30 kts | 225° |
| 2026-05-01 10:44 | 3.63795 | 98.87436 | 39 ft | 27 kts | 224° |
| 2026-05-01 10:44 | 3.63664 | 98.87306 | 39 ft | 20 kts | 224° |
| 2026-05-01 10:44 | 3.63619 | 98.87247 | 39 ft | 10 kts | 269° |
| 2026-05-01 10:45 | 3.63640 | 98.87178 | 38 ft | 11 kts | 267° |
| 2026-05-01 10:45 | 3.63587 | 98.87103 | 39 ft | 16 kts | 224° |
| 2026-05-01 10:45 | 3.63483 | 98.87000 | 38 ft | 26 kts | 225° |
| 2026-05-01 10:45 | 3.63341 | 98.86857 | 39 ft | 29 kts | 225° |
| 2026-05-01 10:46 | 3.63211 | 98.86730 | 38 ft | 25 kts | 225° |
| 2026-05-01 10:46 | 3.63099 | 98.86618 | 39 ft | 23 kts | 225° |
| 2026-05-01 10:46 | 3.62969 | 98.86489 | 38 ft | 24 kts | 224° |
| 2026-05-01 10:46 | 3.62856 | 98.86377 | 38 ft | 26 kts | 225° |
| 2026-05-01 10:47 | 3.62720 | 98.86242 | 38 ft | 28 kts | 225° |
| 2026-05-01 10:47 | 3.62594 | 98.86116 | 38 ft | 22 kts | 225° |
| 2026-05-01 10:47 | 3.62534 | 98.86058 | 39 ft | 11 kts | 224° |
| 2026-05-01 10:47 | 3.62505 | 98.85979 | 38 ft | 14 kts | 285° |
| 2026-05-01 10:48 | 3.62567 | 98.85905 | 38 ft | 12 kts | 316° |
| 2026-05-01 10:48 | 3.62624 | 98.85893 | 38 ft | 10 kts | 34° |
| 2026-05-01 10:48 | 3.62678 | 98.85945 | 39 ft | 14 kts | 44° |
| 2026-05-01 10:48 | 3.62871 | 98.86136 | 38 ft | 70 kts | 45° |
| 2026-05-01 10:49 | 3.63372 | 98.86631 | 39 ft | 131 kts | 44° |
| 2026-05-01 10:49 | 3.64156 | 98.87407 | 39 ft | 186 kts | 44° |
| 2026-05-01 10:49 | 3.64832 | 98.88075 | 98 ft | 208 kts | 43° |
| 2026-05-01 10:49 | 3.66267 | 98.89497 | 819 ft | 219 kts | 39° |
| 2026-05-01 10:50 | 3.67673 | 98.90088 | 1313 ft | 230 kts | 360° |
| 2026-05-01 10:50 | 3.69214 | 98.89677 | 1973 ft | 230 kts | 333° |
| 2026-05-01 10:50 | 3.70440 | 98.88666 | 2609 ft | 232 kts | 312° |
| 2026-05-01 10:50 | 3.71089 | 98.87762 | 2861 ft | 240 kts | 303° |
| 2026-05-01 10:51 | 3.72044 | 98.86313 | 3205 ft | 253 kts | 304° |
| 2026-05-01 10:51 | 3.73024 | 98.84826 | 3619 ft | 265 kts | 303° |
| 2026-05-01 10:51 | 3.73969 | 98.83383 | 4053 ft | 273 kts | 304° |
| 2026-05-01 10:51 | 3.75091 | 98.81670 | 4680 ft | 279 kts | 304° |
| 2026-05-01 10:52 | 3.76343 | 98.79757 | 5414 ft | 283 kts | 304° |
| 2026-05-01 10:52 | 3.77437 | 98.78088 | 6111 ft | 285 kts | 304° |
| 2026-05-01 10:52 | 3.78531 | 98.76420 | 6707 ft | 290 kts | 304° |
| 2026-05-01 10:52 | 3.79655 | 98.74704 | 7321 ft | 293 kts | 304° |
| 2026-05-01 10:53 | 3.80781 | 98.72987 | 7912 ft | 296 kts | 304° |
| 2026-05-01 10:53 | 3.81820 | 98.71188 | 8479 ft | 300 kts | 297° |
| 2026-05-01 10:53 | 3.82694 | 98.69272 | 9049 ft | 304 kts | 294° |
| 2026-05-01 10:53 | 3.83509 | 98.67271 | 9626 ft | 307 kts | 292° |
| 2026-05-01 10:54 | 3.84270 | 98.65287 | 10152 ft | 312 kts | 291° |
| 2026-05-01 10:54 | 3.85086 | 98.63144 | 10417 ft | 328 kts | 292° |
| 2026-05-01 10:54 | 3.85926 | 98.60952 | 10621 ft | 345 kts | 292° |
| 2026-05-01 10:54 | 3.86811 | 98.58653 | 10798 ft | 364 kts | 292° |
| 2026-05-01 10:55 | 3.87746 | 98.56237 | 11012 ft | 380 kts | 292° |
| 2026-05-01 10:55 | 3.88733 | 98.53704 | 11370 ft | 392 kts | 292° |
| 2026-05-01 10:55 | 3.89459 | 98.51857 | 11696 ft | 398 kts | 292° |
| 2026-05-01 10:55 | 3.90538 | 98.49115 | 12287 ft | 404 kts | 292° |
| 2026-05-01 10:56 | 3.91571 | 98.46485 | 12878 ft | 408 kts | 292° |
| 2026-05-01 10:56 | 3.92633 | 98.43782 | 13474 ft | 412 kts | 292° |
| 2026-05-01 10:56 | 3.93686 | 98.41099 | 14055 ft | 416 kts | 292° |
| 2026-05-01 10:56 | 3.94817 | 98.38215 | 14645 ft | 420 kts | 292° |
| 2026-05-01 10:57 | 3.95875 | 98.35519 | 15178 ft | 423 kts | 292° |
| 2026-05-01 10:57 | 3.96970 | 98.32726 | 15706 ft | 427 kts | 292° |
| 2026-05-01 10:57 | 3.98091 | 98.29865 | 16234 ft | 430 kts | 292° |
| 2026-05-01 10:57 | 3.99220 | 98.26987 | 16735 ft | 434 kts | 292° |
| 2026-05-01 10:58 | 4.00309 | 98.24206 | 17202 ft | 437 kts | 292° |
| 2026-05-01 10:58 | 4.01486 | 98.21202 | 17688 ft | 440 kts | 292° |
| 2026-05-01 10:58 | 4.02609 | 98.18338 | 18128 ft | 443 kts | 292° |
| 2026-05-01 10:58 | 4.03738 | 98.15456 | 18559 ft | 446 kts | 292° |
| 2026-05-01 10:59 | 4.04876 | 98.12551 | 18993 ft | 449 kts | 292° |
| 2026-05-01 10:59 | 4.06066 | 98.09512 | 19415 ft | 452 kts | 292° |
| 2026-05-01 10:59 | 4.07234 | 98.06529 | 19812 ft | 454 kts | 292° |
| 2026-05-01 10:59 | 4.08390 | 98.03576 | 20195 ft | 457 kts | 292° |
| 2026-05-01 11:00 | 4.09161 | 98.01607 | 20441 ft | 459 kts | 292° |
| 2026-05-01 11:00 | 4.10387 | 97.98476 | 20819 ft | 462 kts | 292° |
| 2026-05-01 11:00 | 4.11556 | 97.95490 | 21170 ft | 464 kts | 292° |
| 2026-05-01 11:00 | 4.12753 | 97.92431 | 21522 ft | 466 kts | 292° |
| 2026-05-01 11:01 | 4.13925 | 97.89434 | 21888 ft | 468 kts | 292° |
| 2026-05-01 11:01 | 4.15117 | 97.86389 | 22207 ft | 470 kts | 292° |
| 2026-05-01 11:01 | 4.16331 | 97.83288 | 22499 ft | 474 kts | 292° |
| 2026-05-01 11:01 | 4.17552 | 97.80169 | 22819 ft | 476 kts | 292° |
| 2026-05-01 11:02 | 4.18809 | 97.77106 | 23121 ft | 478 kts | 294° |
| 2026-05-01 11:02 | 4.20137 | 97.74037 | 23417 ft | 480 kts | 294° |
| 2026-05-01 11:02 | 4.21519 | 97.70938 | 23706 ft | 482 kts | 295° |
| 2026-05-01 11:02 | 4.22911 | 97.67865 | 24019 ft | 483 kts | 295° |
| 2026-05-01 11:03 | 4.24297 | 97.64809 | 24288 ft | 485 kts | 295° |
| 2026-05-01 11:03 | 4.25673 | 97.61770 | 24552 ft | 487 kts | 295° |
| 2026-05-01 11:03 | 4.27106 | 97.58605 | 24743 ft | 490 kts | 295° |
| 2026-05-01 11:03 | 4.28527 | 97.55462 | 24991 ft | 492 kts | 295° |
| 2026-05-01 11:04 | 4.29945 | 97.52323 | 25216 ft | 495 kts | 295° |
| 2026-05-01 11:04 | 4.31383 | 97.49138 | 25528 ft | 494 kts | 295° |
| 2026-05-01 11:04 | 4.32807 | 97.45986 | 25732 ft | 498 kts | 295° |
| 2026-05-01 11:04 | 4.34241 | 97.42809 | 25893 ft | 501 kts | 295° |
| 2026-05-01 11:05 | 4.35697 | 97.39582 | 26112 ft | 503 kts | 295° |
| 2026-05-01 11:05 | 4.37122 | 97.36425 | 26336 ft | 505 kts | 295° |
| 2026-05-01 11:05 | 4.38649 | 97.33043 | 26572 ft | 506 kts | 295° |
| 2026-05-01 11:05 | 4.40101 | 97.29826 | 26753 ft | 509 kts | 295° |
| 2026-05-01 11:06 | 4.41563 | 97.26583 | 26951 ft | 511 kts | 295° |
| 2026-05-01 11:06 | 4.43033 | 97.23324 | 27163 ft | 512 kts | 295° |
| 2026-05-01 11:06 | 4.44482 | 97.20111 | 27370 ft | 514 kts | 294° |
| 2026-05-01 11:07 | 4.47456 | 97.13514 | 27771 ft | 517 kts | 294° |
| 2026-05-01 11:07 | 4.48935 | 97.10233 | 27965 ft | 518 kts | 294° |
| 2026-05-01 11:07 | 4.50401 | 97.06982 | 28148 ft | 520 kts | 294° |
| 2026-05-01 11:07 | 4.51912 | 97.03628 | 28332 ft | 521 kts | 294° |
| 2026-05-01 11:08 | 4.53406 | 97.00312 | 28494 ft | 522 kts | 294° |
| 2026-05-01 11:08 | 4.54924 | 96.96945 | 28665 ft | 524 kts | 294° |
| 2026-05-01 11:08 | 4.57441 | 96.91357 | 28939 ft | 526 kts | 294° |
| 2026-05-01 11:09 | 4.59556 | 96.86660 | 29154 ft | 527 kts | 294° |
| 2026-05-01 11:09 | 4.60592 | 96.84359 | 29257 ft | 528 kts | 294° |
| 2026-05-01 11:09 | 4.62089 | 96.81035 | 29478 ft | 527 kts | 294° |
| 2026-05-01 11:10 | 4.65123 | 96.74293 | 29922 ft | 526 kts | 294° |
| 2026-05-01 11:10 | 4.66626 | 96.70954 | 30155 ft | 525 kts | 294° |
| 2026-05-01 11:10 | 4.68127 | 96.67617 | 30377 ft | 525 kts | 294° |
| 2026-05-01 11:10 | 4.69648 | 96.64237 | 30590 ft | 525 kts | 294° |
| 2026-05-01 11:11 | 4.71151 | 96.60896 | 30816 ft | 524 kts | 294° |
| 2026-05-01 11:11 | 4.72646 | 96.57572 | 31036 ft | 523 kts | 293° |
| 2026-05-01 11:11 | 4.74146 | 96.54237 | 31235 ft | 523 kts | 293° |
| 2026-05-01 11:11 | 4.75723 | 96.50729 | 31481 ft | 522 kts | 293° |
| 2026-05-01 11:12 | 4.77231 | 96.47375 | 31694 ft | 521 kts | 293° |
| 2026-05-01 11:12 | 4.78720 | 96.44062 | 31801 ft | 522 kts | 293° |
| 2026-05-01 11:12 | 4.81713 | 96.37401 | 31817 ft | 526 kts | 293° |
| 2026-05-01 11:13 | 4.84784 | 96.30564 | 31818 ft | 529 kts | 293° |
| 2026-05-01 11:13 | 4.87835 | 96.23772 | 31816 ft | 532 kts | 293° |
| 2026-05-01 11:14 | 4.90963 | 96.16804 | 31818 ft | 534 kts | 293° |
| 2026-05-01 11:14 | 4.94040 | 96.09949 | 31816 ft | 536 kts | 293° |
| 2026-05-01 11:15 | 4.97090 | 96.03152 | 31818 ft | 538 kts | 293° |
| 2026-05-01 11:15 | 5.00179 | 95.96264 | 31816 ft | 539 kts | 293° |
| 2026-05-01 11:16 | 5.02823 | 95.90368 | 31817 ft | 539 kts | 293° |
| 2026-05-01 11:16 | 5.05916 | 95.83467 | 31817 ft | 538 kts | 293° |
| 2026-05-01 11:17 | 5.08947 | 95.76703 | 31816 ft | 538 kts | 293° |
| 2026-05-01 11:17 | 5.12071 | 95.69729 | 31817 ft | 538 kts | 293° |
| 2026-05-01 11:18 | 5.15146 | 95.62863 | 31817 ft | 538 kts | 293° |
| 2026-05-01 11:18 | 5.18272 | 95.55879 | 31816 ft | 538 kts | 293° |
| 2026-05-01 11:19 | 5.21320 | 95.49067 | 31817 ft | 538 kts | 293° |
| 2026-05-01 11:19 | 5.24407 | 95.42167 | 31816 ft | 538 kts | 293° |
| 2026-05-01 11:20 | 5.27346 | 95.35596 | 31817 ft | 538 kts | 293° |
| 2026-05-01 11:20 | 5.30598 | 95.28322 | 31816 ft | 538 kts | 293° |
| 2026-05-01 11:21 | 5.33680 | 95.21425 | 31817 ft | 538 kts | 293° |
| 2026-05-01 11:21 | 5.36751 | 95.14550 | 31816 ft | 538 kts | 293° |
| 2026-05-01 11:22 | 5.39815 | 95.07689 | 31817 ft | 538 kts | 293° |
| 2026-05-01 11:22 | 5.42875 | 95.00834 | 31816 ft | 538 kts | 293° |
| 2026-05-01 11:23 | 5.45941 | 94.93963 | 31817 ft | 538 kts | 293° |
| 2026-05-01 11:23 | 5.49002 | 94.87102 | 31816 ft | 538 kts | 293° |
| 2026-05-01 11:24 | 5.52058 | 94.80250 | 31817 ft | 538 kts | 293° |
| 2026-05-01 11:25 | 5.56653 | 94.69941 | 31816 ft | 538 kts | 293° |
| 2026-05-01 11:25 | 5.61233 | 94.59661 | 31816 ft | 538 kts | 293° |
| 2026-05-01 11:26 | 5.65810 | 94.49380 | 31817 ft | 537 kts | 293° |
| 2026-05-01 11:27 | 5.68879 | 94.42484 | 31816 ft | 536 kts | 293° |
| 2026-05-01 11:27 | 5.71802 | 94.35914 | 31817 ft | 536 kts | 293° |
| 2026-05-01 11:28 | 5.75003 | 94.28716 | 31817 ft | 536 kts | 293° |
| 2026-05-01 11:28 | 5.77556 | 94.22974 | 31817 ft | 537 kts | 293° |
| 2026-05-01 11:29 | 5.82141 | 94.12656 | 31816 ft | 536 kts | 293° |
| 2026-05-01 11:30 | 5.86699 | 94.02392 | 31816 ft | 536 kts | 293° |
| 2026-05-01 11:30 | 5.89761 | 93.95494 | 31817 ft | 536 kts | 293° |
| 2026-05-01 11:31 | 5.92843 | 93.88548 | 31816 ft | 536 kts | 293° |
| 2026-05-01 11:31 | 5.96001 | 93.81429 | 31817 ft | 536 kts | 293° |
| 2026-05-01 11:32 | 5.98976 | 93.74718 | 31817 ft | 536 kts | 293° |
| 2026-05-01 11:32 | 6.02042 | 93.67805 | 31819 ft | 525 kts | 292° |
| 2026-05-01 11:33 | 6.04933 | 93.61276 | 31817 ft | 521 kts | 292° |
| 2026-05-01 11:33 | 6.07971 | 93.54410 | 31817 ft | 525 kts | 292° |
| 2026-05-01 11:34 | 6.10939 | 93.47712 | 31820 ft | 523 kts | 292° |
| 2026-05-01 11:34 | 6.13901 | 93.41017 | 31817 ft | 526 kts | 292° |
| 2026-05-01 11:35 | 6.16873 | 93.34300 | 31823 ft | 522 kts | 292° |
| 2026-05-01 11:35 | 6.19816 | 93.27642 | 31817 ft | 520 kts | 292° |
| 2026-05-01 11:36 | 6.22739 | 93.21029 | 31816 ft | 523 kts | 292° |
| 2026-05-01 11:36 | 6.25381 | 93.15050 | 31817 ft | 523 kts | 292° |
| 2026-05-01 11:37 | 6.28466 | 93.08064 | 31816 ft | 521 kts | 292° |
| 2026-05-01 11:37 | 6.31421 | 93.01371 | 31817 ft | 521 kts | 292° |
| 2026-05-01 11:38 | 6.34366 | 92.94696 | 31817 ft | 524 kts | 292° |
| 2026-05-01 11:38 | 6.37296 | 92.88055 | 31817 ft | 526 kts | 292° |
| 2026-05-01 11:39 | 6.40332 | 92.81170 | 31817 ft | 526 kts | 292° |
| 2026-05-01 11:39 | 6.43304 | 92.74427 | 31816 ft | 527 kts | 292° |
| 2026-05-01 11:40 | 6.46317 | 92.67587 | 31817 ft | 527 kts | 292° |
| 2026-05-01 11:40 | 6.49300 | 92.60814 | 31816 ft | 526 kts | 292° |
| 2026-05-01 11:41 | 6.52268 | 92.54070 | 31817 ft | 527 kts | 292° |
| 2026-05-01 11:41 | 6.55242 | 92.47312 | 31816 ft | 529 kts | 292° |
| 2026-05-01 11:42 | 6.58304 | 92.40350 | 31817 ft | 529 kts | 292° |
| 2026-05-01 11:42 | 6.61277 | 92.33588 | 31816 ft | 528 kts | 292° |
| 2026-05-01 11:43 | 6.64249 | 92.26825 | 31817 ft | 529 kts | 292° |
| 2026-05-01 11:43 | 6.67221 | 92.20059 | 31816 ft | 529 kts | 292° |
| 2026-05-01 11:44 | 6.71220 | 92.10950 | 31817 ft | 529 kts | 292° |
| 2026-05-01 11:44 | 6.74220 | 92.04113 | 31816 ft | 530 kts | 292° |
| 2026-05-01 11:45 | 6.77295 | 91.97104 | 31817 ft | 530 kts | 292° |
| 2026-05-01 11:45 | 6.80352 | 91.90131 | 31816 ft | 530 kts | 292° |
| 2026-05-01 11:46 | 6.83342 | 91.83307 | 31817 ft | 530 kts | 292° |
| 2026-05-01 11:46 | 6.86392 | 91.76344 | 31816 ft | 530 kts | 292° |
| 2026-05-01 11:47 | 6.89369 | 91.69545 | 31817 ft | 530 kts | 292° |
| 2026-05-01 11:47 | 6.92340 | 91.62756 | 31817 ft | 530 kts | 292° |
| 2026-05-01 11:48 | 6.95314 | 91.55958 | 31817 ft | 530 kts | 292° |
| 2026-05-01 11:48 | 6.97941 | 91.49948 | 31816 ft | 530 kts | 292° |
| 2026-05-01 11:49 | 7.00999 | 91.42952 | 31817 ft | 530 kts | 292° |
| 2026-05-01 11:49 | 7.03945 | 91.36209 | 31816 ft | 530 kts | 292° |
| 2026-05-01 11:50 | 7.06937 | 91.29356 | 31817 ft | 530 kts | 292° |
| 2026-05-01 11:50 | 7.09909 | 91.22548 | 31817 ft | 530 kts | 292° |
| 2026-05-01 11:51 | 7.12888 | 91.15718 | 31817 ft | 530 kts | 292° |
| 2026-05-01 11:51 | 7.15854 | 91.08916 | 31817 ft | 530 kts | 292° |
| 2026-05-01 11:52 | 7.18860 | 91.02019 | 31816 ft | 530 kts | 292° |
| 2026-05-01 11:52 | 7.21825 | 90.95213 | 31817 ft | 530 kts | 292° |
| 2026-05-01 11:53 | 7.24809 | 90.88361 | 31816 ft | 530 kts | 292° |
| 2026-05-01 11:53 | 7.27773 | 90.81550 | 31817 ft | 530 kts | 292° |
| 2026-05-01 11:54 | 7.30755 | 90.74695 | 31816 ft | 530 kts | 292° |
| 2026-05-01 11:54 | 7.33715 | 90.67886 | 31817 ft | 530 kts | 292° |
| 2026-05-01 11:55 | 7.36694 | 90.61033 | 31816 ft | 530 kts | 292° |
| 2026-05-01 11:55 | 7.39653 | 90.54221 | 31817 ft | 530 kts | 292° |
| 2026-05-01 11:56 | 7.42613 | 90.47404 | 31816 ft | 530 kts | 292° |
| 2026-05-01 11:56 | 7.45570 | 90.40589 | 31817 ft | 530 kts | 292° |
| 2026-05-01 11:57 | 7.48028 | 90.34924 | 31816 ft | 530 kts | 292° |
| 2026-05-01 11:57 | 7.51483 | 90.26955 | 31816 ft | 530 kts | 292° |
| 2026-05-01 11:58 | 7.54491 | 90.20013 | 31817 ft | 530 kts | 292° |
| 2026-05-01 11:59 | 7.58429 | 90.10921 | 31819 ft | 522 kts | 292° |
| 2026-05-01 11:59 | 7.61446 | 90.03950 | 31818 ft | 519 kts | 292° |
| 2026-05-01 12:00 | 7.65775 | 89.93941 | 31815 ft | 517 kts | 292° |
| 2026-05-01 12:01 | 7.70116 | 89.83898 | 31817 ft | 520 kts | 292° |
| 2026-05-01 12:01 | 7.73135 | 89.76908 | 31817 ft | 522 kts | 292° |
| 2026-05-01 12:02 | 7.75994 | 89.70284 | 31817 ft | 517 kts | 292° |
| 2026-05-01 12:02 | 7.78845 | 89.63678 | 31816 ft | 513 kts | 292° |
| 2026-05-01 12:03 | 7.81697 | 89.57067 | 31817 ft | 514 kts | 292° |
| 2026-05-01 12:03 | 7.84550 | 89.50449 | 31816 ft | 514 kts | 292° |
| 2026-05-01 12:04 | 7.87420 | 89.43790 | 31817 ft | 515 kts | 292° |
| 2026-05-01 12:04 | 7.90278 | 89.37153 | 31816 ft | 514 kts | 292° |
| 2026-05-01 12:05 | 7.93144 | 89.30494 | 31817 ft | 514 kts | 292° |
| 2026-05-01 12:05 | 7.97459 | 89.20463 | 31817 ft | 514 kts | 292° |
| 2026-05-01 12:06 | 8.00322 | 89.13803 | 31816 ft | 514 kts | 292° |
| 2026-05-01 12:06 | 8.03181 | 89.07151 | 31817 ft | 514 kts | 292° |
| 2026-05-01 12:07 | 8.06044 | 89.00481 | 31807 ft | 515 kts | 293° |
| 2026-05-01 12:07 | 8.08451 | 88.94875 | 31807 ft | 515 kts | 293° |
| 2026-05-01 12:08 | 8.11294 | 88.88250 | 31807 ft | 515 kts | 293° |
| 2026-05-01 12:08 | 8.14195 | 88.81486 | 31807 ft | 515 kts | 293° |
| 2026-05-01 12:09 | 8.17034 | 88.74861 | 31806 ft | 515 kts | 293° |
| 2026-05-01 12:09 | 8.20018 | 88.67897 | 31807 ft | 515 kts | 293° |
| 2026-05-01 12:10 | 8.24196 | 88.58137 | 31807 ft | 515 kts | 293° |
| 2026-05-01 12:11 | 8.28517 | 88.48039 | 31807 ft | 515 kts | 292° |
| 2026-05-01 12:11 | 8.31356 | 88.41392 | 31807 ft | 515 kts | 293° |
| 2026-05-01 12:12 | 8.34214 | 88.34704 | 31808 ft | 514 kts | 293° |
| 2026-05-01 12:12 | 8.37002 | 88.28178 | 31808 ft | 515 kts | 292° |
| 2026-05-01 12:13 | 8.39901 | 88.21379 | 31807 ft | 514 kts | 293° |
| 2026-05-01 12:13 | 8.42747 | 88.14707 | 31807 ft | 514 kts | 293° |
| 2026-05-01 12:14 | 8.45603 | 88.08018 | 31814 ft | 517 kts | 292° |
| 2026-05-01 12:14 | 8.48476 | 88.01270 | 31818 ft | 521 kts | 292° |
| 2026-05-01 12:15 | 8.51347 | 87.94528 | 31815 ft | 523 kts | 292° |
| 2026-05-01 12:15 | 8.54210 | 87.87798 | 31813 ft | 522 kts | 292° |
| 2026-05-01 12:16 | 8.57101 | 87.81002 | 31817 ft | 525 kts | 292° |
| 2026-05-01 12:16 | 8.59989 | 87.74211 | 31818 ft | 525 kts | 292° |
| 2026-05-01 12:17 | 8.62873 | 87.67421 | 31818 ft | 526 kts | 292° |
| 2026-05-01 12:17 | 8.65308 | 87.61687 | 31818 ft | 528 kts | 292° |
| 2026-05-01 12:18 | 8.67730 | 87.55983 | 31817 ft | 530 kts | 292° |
| 2026-05-01 12:18 | 8.70150 | 87.50277 | 31817 ft | 531 kts | 292° |
| 2026-05-01 12:19 | 8.73104 | 87.43312 | 31817 ft | 530 kts | 292° |
| 2026-05-01 12:19 | 8.76010 | 87.36454 | 31816 ft | 530 kts | 292° |
| 2026-05-01 12:20 | 8.78912 | 87.29602 | 31817 ft | 530 kts | 292° |
| 2026-05-01 12:20 | 8.81817 | 87.22739 | 31816 ft | 530 kts | 292° |
| 2026-05-01 12:21 | 8.84715 | 87.15891 | 31817 ft | 530 kts | 292° |
| 2026-05-01 12:21 | 8.87635 | 87.08984 | 31816 ft | 530 kts | 292° |
| 2026-05-01 12:22 | 8.90531 | 87.02129 | 31817 ft | 530 kts | 292° |
| 2026-05-01 12:22 | 8.93414 | 86.95303 | 31816 ft | 530 kts | 292° |
| 2026-05-01 12:23 | 8.96502 | 86.87986 | 31817 ft | 530 kts | 292° |
| 2026-05-01 12:23 | 8.99458 | 86.80979 | 31817 ft | 530 kts | 292° |
| 2026-05-01 12:24 | 9.02433 | 86.73921 | 31816 ft | 530 kts | 292° |
| 2026-05-01 12:24 | 9.04897 | 86.68071 | 31816 ft | 530 kts | 292° |
| 2026-05-01 12:25 | 9.09219 | 86.57805 | 31816 ft | 530 kts | 292° |
| 2026-05-01 12:26 | 9.12122 | 86.50905 | 31817 ft | 530 kts | 292° |
| 2026-05-01 12:26 | 9.16444 | 86.40623 | 31817 ft | 530 kts | 292° |
| 2026-05-01 12:27 | 9.20814 | 86.30218 | 31816 ft | 530 kts | 292° |
| 2026-05-01 12:28 | 9.25145 | 86.19895 | 31816 ft | 530 kts | 292° |
| 2026-05-01 12:29 | 9.29484 | 86.09543 | 31817 ft | 530 kts | 292° |
| 2026-05-01 12:29 | 9.33830 | 85.99166 | 31817 ft | 530 kts | 292° |
| 2026-05-01 12:30 | 9.38099 | 85.88962 | 31817 ft | 530 kts | 291° |
| 2026-05-01 12:31 | 9.41027 | 85.81958 | 31816 ft | 530 kts | 291° |
| 2026-05-01 12:31 | 9.43900 | 85.75084 | 31817 ft | 530 kts | 291° |
| 2026-05-01 12:32 | 9.46794 | 85.68153 | 31816 ft | 530 kts | 291° |
| 2026-05-01 12:32 | 9.50998 | 85.58076 | 31817 ft | 530 kts | 291° |
| 2026-05-01 12:33 | 9.53966 | 85.50956 | 31817 ft | 530 kts | 291° |
| 2026-05-01 12:33 | 9.56831 | 85.44079 | 31816 ft | 530 kts | 291° |
| 2026-05-01 12:34 | 9.59791 | 85.36971 | 31817 ft | 530 kts | 291° |
| 2026-05-01 12:34 | 9.62638 | 85.30127 | 31816 ft | 530 kts | 291° |
| 2026-05-01 12:35 | 9.65520 | 85.23197 | 31817 ft | 530 kts | 291° |
| 2026-05-01 12:35 | 9.68385 | 85.16302 | 31816 ft | 530 kts | 291° |
| 2026-05-01 12:36 | 9.71244 | 85.09418 | 31817 ft | 530 kts | 291° |
| 2026-05-01 12:36 | 9.74099 | 85.02539 | 31817 ft | 530 kts | 291° |
| 2026-05-01 12:37 | 9.76473 | 84.96815 | 31817 ft | 530 kts | 291° |
| 2026-05-01 12:37 | 9.79813 | 84.88757 | 31817 ft | 530 kts | 291° |
| 2026-05-01 12:38 | 9.82290 | 84.82776 | 31817 ft | 530 kts | 291° |
| 2026-05-01 12:38 | 9.85097 | 84.75996 | 31816 ft | 530 kts | 291° |
| 2026-05-01 12:39 | 9.87942 | 84.69118 | 31817 ft | 530 kts | 291° |
| 2026-05-01 12:39 | 9.90796 | 84.62214 | 31817 ft | 530 kts | 291° |
| 2026-05-01 12:40 | 9.93662 | 84.55277 | 31816 ft | 530 kts | 291° |
| 2026-05-01 12:40 | 9.96505 | 84.48392 | 31817 ft | 530 kts | 291° |
| 2026-05-01 12:41 | 9.99312 | 84.41587 | 31816 ft | 530 kts | 291° |
| 2026-05-01 12:41 | 10.02195 | 84.34596 | 31817 ft | 530 kts | 291° |
| 2026-05-01 12:42 | 10.05078 | 84.27597 | 31817 ft | 530 kts | 291° |
| 2026-05-01 12:42 | 10.07934 | 84.20661 | 31816 ft | 529 kts | 291° |
| 2026-05-01 12:43 | 10.10828 | 84.13628 | 31817 ft | 529 kts | 291° |
| 2026-05-01 12:43 | 10.13725 | 84.06583 | 31817 ft | 529 kts | 291° |
| 2026-05-01 12:44 | 10.16556 | 83.99692 | 31816 ft | 530 kts | 291° |
| 2026-05-01 12:45 | 10.22225 | 83.85884 | 31817 ft | 529 kts | 291° |
| 2026-05-01 12:45 | 10.25093 | 83.78889 | 31816 ft | 529 kts | 291° |
| 2026-05-01 12:46 | 10.27905 | 83.72026 | 31817 ft | 529 kts | 291° |
| 2026-05-01 12:46 | 10.30749 | 83.65082 | 31817 ft | 529 kts | 291° |
| 2026-05-01 12:47 | 10.33577 | 83.58173 | 31816 ft | 529 kts | 291° |
| 2026-05-01 12:47 | 10.36422 | 83.51216 | 31816 ft | 529 kts | 291° |
| 2026-05-01 12:48 | 10.39245 | 83.44308 | 31817 ft | 529 kts | 291° |
| 2026-05-01 12:48 | 10.42068 | 83.37397 | 31817 ft | 529 kts | 291° |
| 2026-05-01 12:49 | 10.44907 | 83.30443 | 31816 ft | 529 kts | 291° |
| 2026-05-01 12:49 | 10.47269 | 83.24654 | 31817 ft | 529 kts | 291° |
| 2026-05-01 12:50 | 10.50067 | 83.17790 | 31816 ft | 529 kts | 291° |
| 2026-05-01 12:50 | 10.52928 | 83.10883 | 31817 ft | 529 kts | 291° |
| 2026-05-01 12:51 | 10.55781 | 83.03940 | 31817 ft | 529 kts | 291° |
| 2026-05-01 12:52 | 10.60038 | 82.93515 | 31817 ft | 529 kts | 291° |
| 2026-05-01 12:52 | 10.64311 | 82.83139 | 31815 ft | 529 kts | 292° |
| 2026-05-01 12:53 | 10.68991 | 82.72894 | 31827 ft | 530 kts | 294° |
| 2026-05-01 12:53 | 10.70554 | 82.69497 | 31963 ft | 530 kts | 294° |
| 2026-05-01 12:54 | 10.72088 | 82.66137 | 32118 ft | 529 kts | 294° |
| 2026-05-01 12:54 | 10.75216 | 82.59234 | 32523 ft | 525 kts | 295° |
| 2026-05-01 12:54 | 10.76742 | 82.55864 | 32673 ft | 525 kts | 295° |
| 2026-05-01 12:55 | 10.79818 | 82.49105 | 32827 ft | 527 kts | 295° |
| 2026-05-01 12:55 | 10.81366 | 82.45686 | 33052 ft | 524 kts | 295° |
| 2026-05-01 12:55 | 10.82971 | 82.42143 | 33345 ft | 521 kts | 296° |
| 2026-05-01 12:56 | 10.84122 | 82.39603 | 33375 ft | 522 kts | 295° |
| 2026-05-01 12:56 | 10.86175 | 82.35063 | 33479 ft | 524 kts | 295° |
| 2026-05-01 12:56 | 10.87706 | 82.31675 | 33498 ft | 527 kts | 295° |
| 2026-05-01 12:57 | 10.90768 | 82.24891 | 33823 ft | 524 kts | 296° |
| 2026-05-01 12:57 | 10.95283 | 82.14881 | 33799 ft | 515 kts | 296° |
| 2026-05-01 12:58 | 10.98263 | 82.08271 | 33799 ft | 512 kts | 296° |
| 2026-05-01 12:59 | 11.02224 | 81.99475 | 33790 ft | 513 kts | 296° |
| 2026-05-01 12:59 | 11.06789 | 81.89328 | 33786 ft | 513 kts | 296° |
| 2026-05-01 13:00 | 11.11285 | 81.79322 | 33779 ft | 515 kts | 296° |
| 2026-05-01 13:01 | 11.15816 | 81.69230 | 33769 ft | 515 kts | 296° |
| 2026-05-01 13:02 | 11.20248 | 81.59348 | 33777 ft | 515 kts | 296° |
| 2026-05-01 13:07 | 11.52524 | 80.87062 | 33727 ft | 515 kts | 297° |
| 2026-05-01 13:08 | 11.55723 | 80.79866 | 33728 ft | 515 kts | 297° |
| 2026-05-01 13:08 | 11.58797 | 80.72948 | 33729 ft | 515 kts | 297° |
| 2026-05-01 13:09 | 11.61749 | 80.66297 | 33728 ft | 515 kts | 297° |
| 2026-05-01 13:09 | 11.64744 | 80.59546 | 33728 ft | 515 kts | 297° |
| 2026-05-01 13:10 | 11.67694 | 80.52891 | 33728 ft | 515 kts | 296° |
| 2026-05-01 13:10 | 11.70663 | 80.46187 | 33728 ft | 515 kts | 296° |
| 2026-05-01 13:11 | 11.73614 | 80.39533 | 33729 ft | 515 kts | 297° |
| 2026-05-01 13:11 | 11.76606 | 80.32778 | 33728 ft | 515 kts | 296° |
| 2026-05-01 13:12 | 11.79547 | 80.26115 | 33728 ft | 514 kts | 296° |
| 2026-05-01 13:12 | 11.82483 | 80.19457 | 33728 ft | 515 kts | 296° |
| 2026-05-01 13:13 | 11.84946 | 80.13873 | 33729 ft | 515 kts | 296° |
| 2026-05-01 13:13 | 11.87886 | 80.07165 | 33728 ft | 515 kts | 296° |
| 2026-05-01 13:14 | 11.90800 | 80.00476 | 33728 ft | 515 kts | 296° |
| 2026-05-01 13:14 | 11.93750 | 79.93702 | 33728 ft | 515 kts | 296° |
| 2026-05-01 13:15 | 11.96665 | 79.87029 | 33728 ft | 515 kts | 296° |
| 2026-05-01 13:15 | 11.99684 | 79.80110 | 33728 ft | 514 kts | 296° |
| 2026-05-01 13:16 | 12.02501 | 79.73623 | 33728 ft | 515 kts | 296° |
| 2026-05-01 13:16 | 12.05402 | 79.66938 | 33728 ft | 515 kts | 296° |
| 2026-05-01 13:17 | 12.11330 | 79.53494 | 33728 ft | 514 kts | 297° |
| 2026-05-01 13:18 | 12.15880 | 79.43575 | 33730 ft | 514 kts | 297° |
| 2026-05-01 13:18 | 12.19142 | 79.36409 | 33731 ft | 515 kts | 297° |
| 2026-05-01 13:19 | 12.22209 | 79.29655 | 33728 ft | 515 kts | 297° |
| 2026-05-01 13:20 | 12.26253 | 79.20785 | 33729 ft | 514 kts | 297° |
| 2026-05-01 13:20 | 12.29270 | 79.14150 | 33735 ft | 515 kts | 297° |
| 2026-05-01 13:21 | 12.33875 | 79.03999 | 33743 ft | 516 kts | 297° |
| 2026-05-01 13:21 | 12.36875 | 78.97378 | 33749 ft | 516 kts | 297° |
| 2026-05-01 13:22 | 12.39911 | 78.90672 | 33758 ft | 517 kts | 297° |
| 2026-05-01 13:22 | 12.42932 | 78.83993 | 33758 ft | 516 kts | 297° |
| 2026-05-01 13:23 | 12.45960 | 78.77294 | 33759 ft | 515 kts | 297° |
| 2026-05-01 13:23 | 12.48970 | 78.70629 | 33778 ft | 515 kts | 297° |
| 2026-05-01 13:24 | 12.52047 | 78.63811 | 33782 ft | 517 kts | 297° |
| 2026-05-01 13:25 | 12.56572 | 78.53775 | 33789 ft | 517 kts | 297° |
| 2026-05-01 13:25 | 12.59646 | 78.46949 | 33807 ft | 517 kts | 297° |
| 2026-05-01 13:26 | 12.62656 | 78.40262 | 33817 ft | 517 kts | 297° |
| 2026-05-01 13:26 | 12.65735 | 78.33413 | 33816 ft | 516 kts | 297° |
| 2026-05-01 13:27 | 12.68740 | 78.26727 | 33852 ft | 516 kts | 296° |
| 2026-05-01 13:27 | 12.72851 | 78.17567 | 33882 ft | 514 kts | 296° |
| 2026-05-01 13:28 | 12.77334 | 78.07570 | 33871 ft | 516 kts | 296° |
| 2026-05-01 13:29 | 12.83241 | 77.94399 | 33914 ft | 517 kts | 296° |
| 2026-05-01 13:31 | 12.92563 | 77.73516 | 33932 ft | 515 kts | 296° |
| 2026-05-01 13:32 | 13.00325 | 77.57839 | 33931 ft | 515 kts | 302° |
| 2026-05-01 13:33 | 13.09347 | 77.41216 | 33926 ft | 513 kts | 300° |
| 2026-05-01 13:34 | 13.15865 | 77.29050 | 33918 ft | 515 kts | 301° |
| 2026-05-01 13:35 | 13.21033 | 77.19376 | 33909 ft | 516 kts | 301° |
| 2026-05-01 13:36 | 13.26018 | 77.10022 | 33901 ft | 515 kts | 300° |
| 2026-05-01 13:36 | 13.31456 | 76.99805 | 33891 ft | 516 kts | 300° |
| 2026-05-01 13:37 | 13.34925 | 76.93282 | 33897 ft | 516 kts | 300° |
| 2026-05-01 13:37 | 13.38486 | 76.86580 | 33893 ft | 517 kts | 300° |
| 2026-05-01 13:38 | 13.43659 | 76.76833 | 33876 ft | 518 kts | 300° |
| 2026-05-01 13:39 | 13.47145 | 76.70261 | 33884 ft | 517 kts | 300° |
| 2026-05-01 13:39 | 13.50537 | 76.63858 | 33884 ft | 516 kts | 300° |
| 2026-05-01 13:40 | 13.54040 | 76.57242 | 33856 ft | 518 kts | 300° |
| 2026-05-01 13:40 | 13.57483 | 76.50734 | 33846 ft | 517 kts | 300° |
| 2026-05-01 13:41 | 13.60360 | 76.45292 | 33847 ft | 517 kts | 300° |
| 2026-05-01 13:41 | 13.64267 | 76.37898 | 33837 ft | 517 kts | 300° |
| 2026-05-01 13:42 | 13.67834 | 76.31138 | 33832 ft | 517 kts | 300° |
| 2026-05-01 13:42 | 13.70687 | 76.25729 | 33835 ft | 517 kts | 300° |
| 2026-05-01 13:43 | 13.74145 | 76.19169 | 33823 ft | 517 kts | 300° |
| 2026-05-01 13:43 | 13.77409 | 76.12970 | 33813 ft | 516 kts | 300° |
| 2026-05-01 13:44 | 13.81056 | 76.06039 | 33813 ft | 516 kts | 300° |
| 2026-05-01 13:44 | 13.84502 | 75.99485 | 33816 ft | 517 kts | 300° |
| 2026-05-01 13:45 | 13.87922 | 75.92974 | 33817 ft | 517 kts | 300° |
| 2026-05-01 13:45 | 13.91339 | 75.86464 | 33798 ft | 515 kts | 300° |
| 2026-05-01 13:46 | 13.94764 | 75.79952 | 33804 ft | 514 kts | 300° |
| 2026-05-01 13:46 | 13.98125 | 75.73544 | 33805 ft | 515 kts | 300° |
| 2026-05-01 13:47 | 14.01638 | 75.66825 | 33799 ft | 516 kts | 300° |
| 2026-05-01 13:47 | 14.05039 | 75.60316 | 33792 ft | 516 kts | 300° |
| 2026-05-01 13:48 | 14.08529 | 75.53638 | 33785 ft | 516 kts | 300° |
| 2026-05-01 13:48 | 14.12035 | 75.46903 | 33778 ft | 515 kts | 300° |
| 2026-05-01 13:49 | 14.15419 | 75.40391 | 33770 ft | 515 kts | 300° |
| 2026-05-01 13:49 | 14.18255 | 75.34928 | 33769 ft | 516 kts | 300° |
| 2026-05-01 13:50 | 14.21659 | 75.28365 | 33777 ft | 515 kts | 300° |
| 2026-05-01 13:50 | 14.25062 | 75.21803 | 33777 ft | 515 kts | 300° |
| 2026-05-01 13:51 | 14.28450 | 75.15299 | 33780 ft | 514 kts | 300° |
| 2026-05-01 13:51 | 14.31848 | 75.08747 | 33781 ft | 514 kts | 300° |
| 2026-05-01 13:52 | 14.35226 | 75.02243 | 33767 ft | 516 kts | 300° |
| 2026-05-01 13:52 | 14.38650 | 74.95628 | 33842 ft | 515 kts | 300° |
| 2026-05-01 13:53 | 14.42022 | 74.89094 | 33884 ft | 516 kts | 299° |
| 2026-05-01 13:53 | 14.47122 | 74.79205 | 33900 ft | 516 kts | 299° |
| 2026-05-01 13:54 | 14.50535 | 74.72635 | 33907 ft | 516 kts | 300° |
| 2026-05-01 13:54 | 14.54035 | 74.66057 | 33907 ft | 516 kts | 300° |
| 2026-05-01 13:55 | 14.57431 | 74.59640 | 33904 ft | 516 kts | 300° |
| 2026-05-01 13:55 | 14.60951 | 74.52973 | 33911 ft | 516 kts | 300° |
| 2026-05-01 13:56 | 14.64408 | 74.46416 | 33922 ft | 516 kts | 300° |
| 2026-05-01 13:56 | 14.67858 | 74.39903 | 33918 ft | 516 kts | 300° |
| 2026-05-01 13:57 | 14.70732 | 74.34460 | 33916 ft | 516 kts | 300° |
| 2026-05-01 13:57 | 14.74750 | 74.26834 | 33924 ft | 516 kts | 300° |
| 2026-05-01 13:58 | 14.78213 | 74.20276 | 33933 ft | 514 kts | 299° |
| 2026-05-01 13:58 | 14.81645 | 74.13748 | 33932 ft | 513 kts | 299° |
| 2026-05-01 13:59 | 14.85054 | 74.07247 | 33934 ft | 515 kts | 299° |
| 2026-05-01 13:59 | 14.87518 | 74.02546 | 33935 ft | 514 kts | 299° |
| 2026-05-01 14:00 | 14.91723 | 73.94523 | 33935 ft | 513 kts | 299° |
| 2026-05-01 14:00 | 14.94744 | 73.88776 | 33935 ft | 514 kts | 299° |
| 2026-05-01 14:01 | 14.98335 | 73.81923 | 33935 ft | 513 kts | 299° |
| 2026-05-01 14:01 | 15.01729 | 73.75433 | 33934 ft | 513 kts | 299° |
| 2026-05-01 14:02 | 15.05323 | 73.68544 | 33934 ft | 513 kts | 299° |
| 2026-05-01 14:02 | 15.08366 | 73.62701 | 33935 ft | 513 kts | 299° |
| 2026-05-01 14:03 | 15.11768 | 73.56160 | 33934 ft | 513 kts | 299° |
| 2026-05-01 14:03 | 15.15131 | 73.49689 | 33935 ft | 513 kts | 299° |
| 2026-05-01 14:04 | 15.18656 | 73.42930 | 33935 ft | 513 kts | 299° |
| 2026-05-01 14:04 | 15.21475 | 73.37526 | 33935 ft | 513 kts | 299° |
| 2026-05-01 14:05 | 15.25455 | 73.29873 | 33935 ft | 513 kts | 299° |
| 2026-05-01 14:05 | 15.28834 | 73.23363 | 33934 ft | 513 kts | 299° |
| 2026-05-01 14:06 | 15.32211 | 73.16850 | 33935 ft | 513 kts | 299° |
| 2026-05-01 14:06 | 15.35487 | 73.10526 | 33935 ft | 513 kts | 299° |
| 2026-05-01 14:07 | 15.38971 | 73.03796 | 33934 ft | 513 kts | 299° |
| 2026-05-01 14:08 | 15.44049 | 72.93973 | 33934 ft | 513 kts | 299° |
| 2026-05-01 14:08 | 15.47390 | 72.87502 | 33935 ft | 513 kts | 299° |
| 2026-05-01 14:09 | 15.50869 | 72.80759 | 33935 ft | 513 kts | 299° |
| 2026-05-01 14:09 | 15.54231 | 72.74237 | 33935 ft | 513 kts | 299° |
| 2026-05-01 14:10 | 15.57026 | 72.68810 | 33934 ft | 513 kts | 299° |
| 2026-05-01 14:10 | 15.60960 | 72.61164 | 33934 ft | 513 kts | 299° |
| 2026-05-01 14:11 | 15.63772 | 72.55695 | 33935 ft | 513 kts | 299° |
| 2026-05-01 14:11 | 15.69344 | 72.44845 | 33935 ft | 513 kts | 299° |
| 2026-05-01 14:12 | 15.72158 | 72.39357 | 33935 ft | 513 kts | 299° |
| 2026-05-01 14:12 | 15.75507 | 72.32823 | 33935 ft | 513 kts | 299° |
| 2026-05-01 14:13 | 15.78879 | 72.26237 | 33934 ft | 513 kts | 299° |
| 2026-05-01 14:13 | 15.82228 | 72.19692 | 33935 ft | 513 kts | 299° |
| 2026-05-01 14:14 | 15.85725 | 72.12849 | 33935 ft | 513 kts | 299° |
| 2026-05-01 14:14 | 15.89109 | 72.06221 | 33934 ft | 513 kts | 299° |
| 2026-05-01 14:15 | 15.92377 | 71.99814 | 33935 ft | 513 kts | 299° |
| 2026-05-01 14:15 | 15.95434 | 71.93821 | 33934 ft | 513 kts | 299° |
| 2026-05-01 14:16 | 15.98914 | 71.87009 | 33935 ft | 513 kts | 299° |
| 2026-05-01 14:16 | 16.02267 | 71.80409 | 33935 ft | 513 kts | 299° |
| 2026-05-01 14:17 | 16.05594 | 71.73851 | 33934 ft | 513 kts | 299° |
| 2026-05-01 14:17 | 16.08911 | 71.67315 | 33935 ft | 513 kts | 299° |
| 2026-05-01 14:18 | 16.12274 | 71.60748 | 33935 ft | 512 kts | 300° |
| 2026-05-01 14:18 | 16.15118 | 71.55347 | 33935 ft | 512 kts | 300° |
| 2026-05-01 14:19 | 16.19177 | 71.47590 | 33935 ft | 512 kts | 300° |
| 2026-05-01 14:19 | 16.22575 | 71.41074 | 33935 ft | 512 kts | 299° |
| 2026-05-01 14:20 | 16.27677 | 71.31291 | 33935 ft | 512 kts | 300° |
| 2026-05-01 14:21 | 16.31219 | 71.24516 | 33934 ft | 512 kts | 300° |
| 2026-05-01 14:21 | 16.34496 | 71.18224 | 33935 ft | 512 kts | 299° |
| 2026-05-01 14:22 | 16.39613 | 71.08405 | 33935 ft | 512 kts | 299° |
| 2026-05-01 14:22 | 16.42989 | 71.01901 | 33934 ft | 512 kts | 299° |
| 2026-05-01 14:23 | 16.46465 | 70.95188 | 33935 ft | 512 kts | 299° |
| 2026-05-01 14:23 | 16.49826 | 70.88691 | 33935 ft | 512 kts | 299° |
| 2026-05-01 14:24 | 16.53139 | 70.82287 | 33934 ft | 512 kts | 299° |
| 2026-05-01 14:24 | 16.56673 | 70.75542 | 33935 ft | 512 kts | 300° |
| 2026-05-01 14:25 | 16.60135 | 70.68928 | 33935 ft | 512 kts | 300° |
| 2026-05-01 14:25 | 16.63546 | 70.62397 | 33934 ft | 512 kts | 300° |
| 2026-05-01 14:26 | 16.68108 | 70.53646 | 33935 ft | 512 kts | 300° |
| 2026-05-01 14:27 | 16.71544 | 70.47087 | 33929 ft | 512 kts | 300° |
| 2026-05-01 14:27 | 16.75121 | 70.40246 | 33933 ft | 512 kts | 300° |
| 2026-05-01 14:28 | 16.80133 | 70.30627 | 33935 ft | 512 kts | 300° |
| 2026-05-01 14:28 | 16.83535 | 70.24087 | 33923 ft | 512 kts | 300° |
| 2026-05-01 14:29 | 16.86857 | 70.17694 | 33930 ft | 512 kts | 300° |
| 2026-05-01 14:30 | 16.94050 | 70.03830 | 33888 ft | 511 kts | 300° |
| 2026-05-01 14:31 | 16.99167 | 69.93950 | 33892 ft | 510 kts | 300° |
| 2026-05-01 14:31 | 17.02001 | 69.88471 | 33895 ft | 511 kts | 299° |
| 2026-05-01 14:32 | 17.05408 | 69.81899 | 33888 ft | 511 kts | 300° |
| 2026-05-01 14:32 | 17.08807 | 69.75323 | 33884 ft | 510 kts | 299° |
| 2026-05-01 14:33 | 17.12195 | 69.68744 | 33885 ft | 510 kts | 299° |
| 2026-05-01 14:33 | 17.15556 | 69.62209 | 33884 ft | 510 kts | 299° |
| 2026-05-01 14:34 | 17.18991 | 69.55534 | 33884 ft | 510 kts | 299° |
| 2026-05-01 14:34 | 17.22329 | 69.49081 | 33883 ft | 510 kts | 300° |
| 2026-05-01 14:35 | 17.25688 | 69.42596 | 33883 ft | 510 kts | 300° |
| 2026-05-01 14:35 | 17.29159 | 69.35881 | 33883 ft | 510 kts | 299° |
| 2026-05-01 14:36 | 17.32558 | 69.29295 | 33882 ft | 510 kts | 299° |
| 2026-05-01 14:36 | 17.36182 | 69.22270 | 33882 ft | 510 kts | 300° |
| 2026-05-01 14:37 | 17.39599 | 69.15688 | 33883 ft | 510 kts | 300° |
| 2026-05-01 14:37 | 17.42455 | 69.10165 | 33827 ft | 508 kts | 299° |
| 2026-05-01 14:38 | 17.45815 | 69.03647 | 33827 ft | 503 kts | 299° |
| 2026-05-01 14:38 | 17.49159 | 68.97149 | 33848 ft | 504 kts | 299° |
| 2026-05-01 14:39 | 17.52499 | 68.90654 | 33856 ft | 507 kts | 300° |
| 2026-05-01 14:39 | 17.55838 | 68.84155 | 33819 ft | 505 kts | 299° |
| 2026-05-01 14:40 | 17.59223 | 68.77559 | 33786 ft | 502 kts | 298° |
| 2026-05-01 14:40 | 17.62515 | 68.71135 | 33789 ft | 500 kts | 298° |
| 2026-05-01 14:41 | 17.65815 | 68.64693 | 33772 ft | 501 kts | 298° |
| 2026-05-01 14:41 | 17.69108 | 68.58254 | 33770 ft | 500 kts | 298° |
| 2026-05-01 14:42 | 17.72421 | 68.51771 | 33770 ft | 500 kts | 298° |
| 2026-05-01 14:42 | 17.75724 | 68.45302 | 33769 ft | 500 kts | 298° |
| 2026-05-01 14:43 | 17.79048 | 68.38785 | 33767 ft | 500 kts | 298° |
| 2026-05-01 14:43 | 17.82327 | 68.32349 | 33767 ft | 500 kts | 298° |
| 2026-05-01 14:44 | 17.85628 | 68.25863 | 33767 ft | 500 kts | 298° |
| 2026-05-01 14:44 | 17.90562 | 68.16158 | 33765 ft | 500 kts | 298° |
| 2026-05-01 14:45 | 17.95529 | 68.06401 | 33764 ft | 500 kts | 298° |
| 2026-05-01 14:46 | 17.98838 | 67.99868 | 33765 ft | 500 kts | 298° |
| 2026-05-01 14:46 | 18.03691 | 67.90263 | 33764 ft | 500 kts | 298° |
| 2026-05-01 14:47 | 18.06478 | 67.84748 | 33763 ft | 500 kts | 298° |
| 2026-05-01 14:48 | 18.11498 | 67.75029 | 33763 ft | 500 kts | 299° |
| 2026-05-01 14:48 | 18.16611 | 67.65305 | 33770 ft | 501 kts | 300° |
| 2026-05-01 14:49 | 18.23078 | 67.52924 | 33761 ft | 500 kts | 299° |
| 2026-05-01 14:50 | 18.30255 | 67.39228 | 33844 ft | 503 kts | 300° |
| 2026-05-01 14:51 | 18.34860 | 67.30402 | 33846 ft | 506 kts | 300° |
| 2026-05-01 14:52 | 18.40404 | 67.19750 | 33846 ft | 506 kts | 300° |
| 2026-05-01 14:53 | 18.45051 | 67.10806 | 33847 ft | 505 kts | 299° |
| 2026-05-01 14:53 | 18.48446 | 67.04264 | 33846 ft | 505 kts | 299° |
| 2026-05-01 14:54 | 18.51976 | 66.97454 | 33846 ft | 506 kts | 299° |
| 2026-05-01 14:54 | 18.55343 | 66.90950 | 33847 ft | 505 kts | 299° |
| 2026-05-01 14:55 | 18.58721 | 66.84420 | 33846 ft | 505 kts | 299° |
| 2026-05-01 14:55 | 18.62102 | 66.77876 | 33846 ft | 505 kts | 299° |
| 2026-05-01 14:56 | 18.65481 | 66.71328 | 33847 ft | 505 kts | 299° |
| 2026-05-01 14:56 | 18.68867 | 66.64762 | 33846 ft | 505 kts | 299° |
| 2026-05-01 14:57 | 18.72268 | 66.58158 | 33846 ft | 505 kts | 299° |
| 2026-05-01 14:57 | 18.77300 | 66.48378 | 33791 ft | 504 kts | 298° |
| 2026-05-01 14:58 | 18.80635 | 66.41885 | 33749 ft | 496 kts | 298° |
| 2026-05-01 14:58 | 18.83905 | 66.35509 | 33745 ft | 492 kts | 298° |
| 2026-05-01 14:59 | 18.87164 | 66.29150 | 33745 ft | 493 kts | 298° |
| 2026-05-01 14:59 | 18.90431 | 66.22769 | 33745 ft | 494 kts | 298° |
| 2026-05-01 15:00 | 18.95394 | 66.13063 | 33745 ft | 494 kts | 298° |
| 2026-05-01 15:01 | 18.98101 | 66.07761 | 33745 ft | 493 kts | 298° |
| 2026-05-01 15:01 | 19.01405 | 66.01285 | 33746 ft | 493 kts | 298° |
| 2026-05-01 15:02 | 19.04670 | 65.94879 | 33746 ft | 493 kts | 298° |
| 2026-05-01 15:02 | 19.07919 | 65.88498 | 33745 ft | 493 kts | 298° |
| 2026-05-01 15:03 | 19.11174 | 65.82096 | 33746 ft | 493 kts | 298° |
| 2026-05-01 15:03 | 19.14311 | 65.75923 | 33745 ft | 493 kts | 298° |
| 2026-05-01 15:04 | 19.17691 | 65.69260 | 33745 ft | 493 kts | 298° |
| 2026-05-01 15:04 | 19.20939 | 65.62853 | 33746 ft | 493 kts | 298° |
| 2026-05-01 15:05 | 19.24180 | 65.56453 | 33746 ft | 493 kts | 298° |
| 2026-05-01 15:05 | 19.27422 | 65.50044 | 33746 ft | 493 kts | 298° |
| 2026-05-01 15:06 | 19.30899 | 65.43162 | 33746 ft | 493 kts | 298° |
| 2026-05-01 15:06 | 19.34134 | 65.36750 | 33746 ft | 493 kts | 298° |
| 2026-05-01 15:07 | 19.37406 | 65.30262 | 33746 ft | 493 kts | 298° |
| 2026-05-01 15:07 | 19.40635 | 65.23883 | 33747 ft | 493 kts | 298° |
| 2026-05-01 15:08 | 19.43861 | 65.17461 | 33735 ft | 493 kts | 298° |
| 2026-05-01 15:08 | 19.47125 | 65.10952 | 33735 ft | 493 kts | 298° |
| 2026-05-01 15:09 | 19.50337 | 65.04540 | 33736 ft | 493 kts | 298° |
| 2026-05-01 15:09 | 19.53082 | 64.99062 | 33735 ft | 493 kts | 298° |
| 2026-05-01 15:10 | 19.56385 | 64.92637 | 33736 ft | 493 kts | 298° |
| 2026-05-01 15:10 | 19.61326 | 64.83051 | 33741 ft | 494 kts | 299° |
| 2026-05-01 15:11 | 19.66272 | 64.73406 | 33735 ft | 493 kts | 298° |
| 2026-05-01 15:12 | 19.69546 | 64.67013 | 33750 ft | 493 kts | 299° |
| 2026-05-01 15:12 | 19.74506 | 64.57392 | 33763 ft | 498 kts | 299° |
| 2026-05-01 15:14 | 19.82817 | 64.41157 | 33763 ft | 498 kts | 299° |
| 2026-05-01 15:14 | 19.87815 | 64.31363 | 33763 ft | 500 kts | 299° |
| 2026-05-01 15:15 | 19.94433 | 64.18367 | 33763 ft | 499 kts | 299° |
| 2026-05-01 15:16 | 20.01109 | 64.05225 | 33763 ft | 499 kts | 299° |
| 2026-05-01 15:18 | 20.08989 | 63.89676 | 33762 ft | 499 kts | 299° |
| 2026-05-01 15:19 | 20.15769 | 63.76264 | 33763 ft | 499 kts | 298° |
| 2026-05-01 15:19 | 20.20743 | 63.66403 | 33763 ft | 499 kts | 298° |
| 2026-05-01 15:20 | 20.25695 | 63.56570 | 33763 ft | 499 kts | 298° |
| 2026-05-01 15:21 | 20.28977 | 63.50043 | 33762 ft | 499 kts | 298° |
| 2026-05-01 15:21 | 20.32234 | 63.43558 | 33762 ft | 499 kts | 298° |
| 2026-05-01 15:22 | 20.37186 | 63.33684 | 33763 ft | 499 kts | 298° |
| 2026-05-01 15:22 | 20.40461 | 63.27144 | 33763 ft | 499 kts | 298° |
| 2026-05-01 15:23 | 20.43817 | 63.20435 | 33762 ft | 499 kts | 298° |
| 2026-05-01 15:23 | 20.47132 | 63.13801 | 33763 ft | 499 kts | 298° |
| 2026-05-01 15:24 | 20.50380 | 63.07292 | 33763 ft | 499 kts | 298° |
| 2026-05-01 15:24 | 20.53206 | 63.01621 | 33763 ft | 499 kts | 298° |
| 2026-05-01 15:25 | 20.56465 | 62.95077 | 33762 ft | 499 kts | 298° |
| 2026-05-01 15:25 | 20.59726 | 62.88520 | 33762 ft | 499 kts | 298° |
| 2026-05-01 15:26 | 20.62981 | 62.81967 | 33763 ft | 499 kts | 298° |
| 2026-05-01 15:26 | 20.66236 | 62.75406 | 33762 ft | 499 kts | 298° |
| 2026-05-01 15:27 | 20.69536 | 62.68747 | 33762 ft | 499 kts | 298° |
| 2026-05-01 15:28 | 20.74549 | 62.58616 | 33762 ft | 499 kts | 298° |
| 2026-05-01 15:28 | 20.77816 | 62.52004 | 33763 ft | 499 kts | 298° |
| 2026-05-01 15:29 | 20.82346 | 62.42821 | 33762 ft | 499 kts | 298° |
| 2026-05-01 15:30 | 20.88285 | 62.30759 | 33762 ft | 499 kts | 298° |
| 2026-05-01 15:31 | 20.98588 | 62.09768 | 33763 ft | 499 kts | 298° |
| 2026-05-01 15:32 | 21.05240 | 61.96174 | 33762 ft | 499 kts | 298° |
| 2026-05-01 15:34 | 21.14904 | 61.76379 | 33762 ft | 499 kts | 298° |